Time;durP1;ratioP1;P1;durP2;ratioP2;P2;SDS_P1;SDS_P2;PMS_P1;PMS_P2;Temp;Humidity;BMP_temperature;BMP_pressure;BME280_temperature;BME280_humidity;BME280_pressure;Samples;Min_cycle;Max_cycle;Signal;HPM_P1;HPM_P2
2022/11/08 00:02:10;;;;;;;3.90;1.40;;;;;;;19.65;52.09;100889.41;5061904;28;20041;-67
2022/11/08 00:04:36;;;;;;;4.53;1.58;;;;;;;19.67;52.07;100898.00;5061393;28;20036;-67
2022/11/08 00:15:13;;;;;;;4.65;1.20;;;;;;;19.57;51.89;100893.53;5060806;28;20039;-68
2022/11/08 00:17:39;;;;;;;5.18;1.70;;;;;;;19.56;52.09;100891.00;5061459;28;20161;-68
2022/11/08 00:20:05;;;;;;;4.43;1.30;;;;;;;19.55;51.76;100889.31;5061943;28;20025;-68
2022/11/08 00:22:30;;;;;;;3.55;1.20;;;;;;;19.54;52.15;100893.78;5061687;28;20395;-68
2022/11/08 00:24:56;;;;;;;4.72;1.30;;;;;;;19.51;52.00;100888.75;5061378;28;20028;-67
2022/11/08 00:27:22;;;;;;;5.00;1.40;;;;;;;19.48;52.21;100894.31;5061576;28;20041;-68
2022/11/08 00:29:48;;;;;;;3.92;1.20;;;;;;;19.47;52.17;100887.38;5061528;28;20040;-67
2022/11/08 00:32:19;;;;;;;4.72;1.30;;;;;;;19.49;52.18;100888.06;5061211;28;20428;-67
2022/11/08 00:34:45;;;;;;;5.25;1.20;;;;;;;19.49;52.01;100892.53;5061353;28;20036;-68
2022/11/08 00:37:11;;;;;;;3.60;1.42;;;;;;;19.45;52.12;100891.09;5061168;28;20400;-67
2022/11/08 00:39:36;;;;;;;3.72;1.30;;;;;;;19.45;51.88;100886.66;5060968;28;20036;-68
2022/11/08 00:42:03;;;;;;;4.53;1.40;;;;;;;19.42;51.68;100878.97;5061394;28;20101;-68
2022/11/08 00:44:28;;;;;;;4.38;1.35;;;;;;;19.38;52.08;100873.13;5060599;28;20035;-68
2022/11/08 00:46:53;;;;;;;4.15;1.10;;;;;;;19.39;51.83;100874.81;5061502;28;20032;-67
2022/11/08 00:49:19;;;;;;;5.05;1.55;;;;;;;19.38;52.17;100881.06;5061097;28;20032;-66
2022/11/08 00:51:44;;;;;;;5.35;1.33;;;;;;;19.34;51.88;100871.75;5061162;28;20028;-68
2022/11/08 00:54:13;;;;;;;4.35;1.50;;;;;;;19.34;52.11;100866.44;5061067;28;20075;-68
2022/11/08 00:56:38;;;;;;;3.25;1.15;;;;;;;19.35;51.93;100873.38;5061121;28;20054;-68
2022/11/08 00:59:03;;;;;;;4.00;1.35;;;;;;;19.34;51.91;100870.88;5060567;28;20036;-69
2022/11/08 01:01:29;;;;;;;3.90;1.30;;;;;;;19.34;51.90;100868.25;5043075;28;20032;-68
2022/11/08 01:03:54;;;;;;;3.90;1.40;;;;;;;19.29;51.81;100858.06;5061326;28;20024;-67
2022/11/08 01:06:21;;;;;;;4.78;1.40;;;;;;;19.26;52.07;100855.69;5061002;28;20029;-69
2022/11/08 01:08:48;;;;;;;4.10;1.50;;;;;;;19.27;51.99;100859.19;5060825;28;20413;-68
2022/11/08 01:11:17;;;;;;;2.70;1.20;;;;;;;19.25;52.04;100856.66;5061093;28;20043;-69
2022/11/08 01:13:42;;;;;;;4.20;1.27;;;;;;;19.27;52.08;100862.66;5060661;28;20029;-68
2022/11/08 01:16:11;;;;;;;3.80;1.27;;;;;;;19.24;51.96;100854.97;5060711;28;20048;-67
2022/11/08 01:18:36;;;;;;;5.00;1.30;;;;;;;19.26;51.95;100854.84;5060572;28;20480;-69
2022/11/08 01:21:03;;;;;;;4.60;1.30;;;;;;;19.26;51.90;100857.50;5061245;28;20032;-68
2022/11/08 01:23:29;;;;;;;4.65;1.58;;;;;;;19.26;52.02;100862.78;5060819;28;20043;-67
2022/11/08 01:25:54;;;;;;;4.82;1.40;;;;;;;19.25;51.76;100859.31;5060982;28;20048;-67
2022/11/08 01:28:19;;;;;;;3.90;1.20;;;;;;;19.24;51.78;100856.81;5064161;28;20036;-67
2022/11/08 01:30:45;;;;;;;4.07;1.20;;;;;;;19.21;51.76;100845.50;5064861;28;20123;-67
2022/11/08 01:33:11;;;;;;;3.70;1.45;;;;;;;19.24;51.77;100852.34;5064592;28;20064;-68
2022/11/08 01:35:37;;;;;;;3.72;1.45;;;;;;;19.21;51.72;100847.31;5064575;28;20070;-67
2022/11/08 01:38:04;;;;;;;4.00;1.48;;;;;;;19.23;52.00;100841.91;5064949;28;20076;-67
2022/11/08 01:40:30;;;;;;;2.58;0.95;;;;;;;19.17;51.87;100833.53;5064624;28;20047;-68
2022/11/08 01:42:56;;;;;;;4.28;1.45;;;;;;;19.17;51.87;100836.19;5064120;28;20032;-69
2022/11/08 01:45:58;;;;;;;3.08;1.20;;;;;;;19.19;51.83;100828.97;5046361;28;20593;-69
2022/11/08 01:48:26;;;;;;;3.92;1.10;;;;;;;19.15;51.93;100818.78;5063980;28;20070;-70
2022/11/08 01:50:53;;;;;;;3.58;1.20;;;;;;;19.16;51.96;100813.38;5064430;28;20047;-68
2022/11/08 01:53:19;;;;;;;4.15;1.88;;;;;;;19.16;52.08;100817.81;5063962;28;20036;-67
2022/11/08 01:55:46;;;;;;;4.63;1.40;;;;;;;19.16;51.86;100813.38;5065123;28;20075;-68
2022/11/08 01:58:16;;;;;;;3.25;1.23;;;;;;;19.16;51.82;100808.09;5064300;28;20059;-68
2022/11/08 02:00:42;;;;;;;4.07;1.27;;;;;;;19.16;51.82;100809.91;5064274;28;20040;-69
2022/11/08 02:03:11;;;;;;;3.35;1.50;;;;;;;19.15;51.79;100806.44;5064139;28;20036;-67
2022/11/08 02:05:38;;;;;;;4.65;1.40;;;;;;;19.14;51.86;100794.19;5063828;28;20044;-67
2022/11/08 02:08:03;;;;;;;3.50;1.10;;;;;;;19.14;51.80;100798.63;5064001;28;20033;-69
2022/11/08 02:10:38;;;;;;;4.38;1.30;;;;;;;19.11;51.83;100791.81;5064178;28;20032;-69
2022/11/08 02:13:07;;;;;;;6.43;1.30;;;;;;;19.12;51.69;100790.00;5063998;28;20040;-68
2022/11/08 02:15:32;;;;;;;4.65;1.20;;;;;;;19.09;51.84;100791.09;5064145;28;20123;-69
2022/11/08 02:17:57;;;;;;;5.05;1.95;;;;;;;19.07;51.59;100784.28;5063421;28;20182;-68
2022/11/08 02:20:23;;;;;;;3.45;1.30;;;;;;;19.10;51.79;100776.09;5063969;28;20036;-69
2022/11/08 02:23:00;;;;;;;4.20;1.35;;;;;;;19.08;51.89;100778.84;5045528;28;20127;-70
2022/11/08 02:25:25;;;;;;;3.95;1.27;;;;;;;19.05;51.77;100767.72;5064136;28;20032;-68
2022/11/08 02:27:52;;;;;;;3.25;1.13;;;;;;;19.08;51.78;100770.09;5063523;28;20495;-69
2022/11/08 02:30:17;;;;;;;3.80;1.20;;;;;;;19.06;51.48;100764.09;5063395;28;20040;-67
2022/11/08 02:32:42;;;;;;;3.28;1.30;;;;;;;19.08;51.83;100759.53;5063710;28;20039;-67
2022/11/08 02:35:13;;;;;;;4.00;1.30;;;;;;;19.04;51.66;100753.66;5063177;28;20043;-68
2022/11/08 02:37:39;;;;;;;4.13;1.40;;;;;;;19.02;51.50;100748.50;5062776;28;20461;-69
2022/11/08 02:40:04;;;;;;;4.15;1.30;;;;;;;19.05;51.88;100751.88;5063429;28;20077;-68
2022/11/08 02:42:30;;;;;;;4.65;1.50;;;;;;;19.03;51.80;100747.56;5063745;28;20499;-68
2022/11/08 02:44:55;;;;;;;3.25;1.10;;;;;;;19.05;51.55;100746.59;5063503;28;20365;-69
2022/11/08 02:47:20;;;;;;;3.43;1.20;;;;;;;19.03;51.60;100738.81;5063004;28;20032;-68
2022/11/08 02:49:45;;;;;;;3.67;1.40;;;;;;;18.99;51.65;100732.09;5063367;28;20772;-67
2022/11/08 02:52:11;;;;;;;3.35;1.30;;;;;;;19.03;51.59;100734.34;5063326;28;20028;-67
2022/11/08 02:54:36;;;;;;;4.50;1.40;;;;;;;19.03;51.44;100730.88;5063272;28;20049;-69
2022/11/08 02:57:02;;;;;;;3.30;1.23;;;;;;;18.98;51.89;100719.88;5063123;28;20495;-67
2022/11/08 02:59:27;;;;;;;3.50;1.10;;;;;;;19.00;51.44;100718.78;5063259;28;20036;-68
2022/11/08 03:01:52;;;;;;;3.00;1.20;;;;;;;18.98;51.71;100709.31;5063122;28;20430;-68
2022/11/08 03:04:17;;;;;;;3.65;1.20;;;;;;;18.98;51.58;100711.97;5062927;28;20063;-70
2022/11/08 03:06:43;;;;;;;4.77;1.40;;;;;;;18.95;51.58;100699.03;5062835;28;20605;-69
2022/11/08 03:09:08;;;;;;;5.25;1.50;;;;;;;18.98;51.53;100696.94;5063054;28;20257;-69
2022/11/08 03:11:33;;;;;;;2.20;1.00;;;;;;;18.98;51.72;100694.31;5062933;28;20044;-67
2022/11/08 03:13:59;;;;;;;3.22;1.13;;;;;;;18.97;51.31;100695.25;5062878;28;20037;-67
2022/11/08 03:16:24;;;;;;;3.83;1.27;;;;;;;18.92;51.70;100686.91;5062580;28;21201;-67
2022/11/08 03:18:50;;;;;;;3.22;1.20;;;;;;;18.91;51.55;100676.50;5062700;28;20032;-67
2022/11/08 03:21:15;;;;;;;2.70;1.10;;;;;;;18.93;51.66;100685.97;5062506;28;20044;-69
2022/11/08 03:23:41;;;;;;;3.58;1.20;;;;;;;18.95;51.34;100691.94;5062752;28;20032;-67
2022/11/08 03:26:06;;;;;;;3.63;1.95;;;;;;;18.92;51.58;100679.00;5062745;28;20028;-68
2022/11/08 03:28:32;;;;;;;3.35;1.13;;;;;;;18.93;51.49;100685.09;5062681;28;20476;-69
2022/11/08 03:30:57;;;;;;;3.55;0.98;;;;;;;18.91;51.48;100673.84;5062493;28;20381;-68
2022/11/08 03:33:22;;;;;;;3.80;1.17;;;;;;;18.95;51.35;100667.34;5062355;28;20032;-69
2022/11/08 03:35:48;;;;;;;3.85;1.20;;;;;;;18.91;51.71;100656.19;5062402;28;20032;-68
2022/11/08 03:38:15;;;;;;;2.83;1.30;;;;;;;18.92;51.40;100654.41;5062113;28;20047;-69
2022/11/08 03:40:41;;;;;;;2.65;1.00;;;;;;;18.91;51.37;100656.19;5062063;28;20040;-68
2022/11/08 03:43:06;;;;;;;3.75;1.40;;;;;;;18.89;51.81;100647.56;5062332;28;20059;-67
2022/11/08 03:45:31;;;;;;;3.20;1.05;;;;;;;18.92;51.48;100642.03;5062308;28;20379;-67
2022/11/08 03:47:56;;;;;;;2.45;1.05;;;;;;;18.93;51.35;100627.00;5044042;28;20127;-70
2022/11/08 03:50:22;;;;;;;5.15;1.40;;;;;;;18.90;51.58;100622.00;5062189;28;20032;-67
2022/11/08 03:52:50;;;;;;;2.97;1.02;;;;;;;18.92;51.40;100628.00;5062202;28;20503;-68
2022/11/08 03:55:17;;;;;;;3.60;1.40;;;;;;;18.90;51.48;100614.06;5061601;28;20450;-68
2022/11/08 03:57:46;;;;;;;2.22;0.98;;;;;;;18.89;51.53;100617.69;5062315;28;20379;-67
2022/11/08 04:00:12;;;;;;;4.60;1.30;;;;;;;18.90;51.44;100612.28;5062131;28;20432;-68
2022/11/08 04:02:38;;;;;;;3.35;1.35;;;;;;;18.78;51.42;100598.31;5061729;28;20306;-66
2022/11/08 04:05:04;;;;;;;2.88;1.27;;;;;;;18.87;51.50;100616.97;5061834;28;20089;-68
2022/11/08 04:07:30;;;;;;;2.92;1.02;;;;;;;18.91;51.31;100623.69;5061398;28;20032;-67
2022/11/08 04:09:55;;;;;;;3.87;1.10;;;;;;;18.88;51.24;100602.81;5061892;28;20059;-67
2022/11/08 04:15:15;;;;;;;2.40;1.17;;;;;;;18.85;51.32;100585.47;5061974;28;20046;-68
2022/11/08 04:23:20;;;;;;;3.80;1.30;;;;;;;18.83;51.38;100579.44;5061341;28;20439;-66
2022/11/08 04:25:52;;;;;;;4.22;1.30;;;;;;;18.84;51.33;100579.31;5043258;28;20028;-69
2022/11/08 04:28:18;;;;;;;4.78;1.10;;;;;;;18.83;51.35;100579.44;5061355;28;20028;-69
2022/11/08 04:30:43;;;;;;;6.35;2.38;;;;;;;18.84;51.15;100578.50;5061299;28;20118;-68
2022/11/08 04:33:08;;;;;;;6.47;1.70;;;;;;;18.84;51.29;100573.22;5061640;28;20029;-68
2022/11/08 04:35:33;;;;;;;2.85;1.13;;;;;;;18.81;51.00;100565.53;5061184;28;20733;-68
2022/11/08 04:38:00;;;;;;;4.70;1.53;;;;;;;18.84;51.52;100565.28;5061141;28;20124;-66
2022/11/08 04:40:26;;;;;;;3.30;1.10;;;;;;;18.83;51.30;100559.16;5061102;28;20304;-68
2022/11/08 04:42:51;;;;;;;3.55;1.17;;;;;;;18.78;51.19;100542.03;5061297;28;20048;-67
2022/11/08 04:45:17;;;;;;;3.53;1.15;;;;;;;18.80;51.25;100554.16;5060578;28;20029;-68
2022/11/08 04:47:45;;;;;;;4.47;1.27;;;;;;;18.82;51.26;100552.19;5061384;28;20052;-68
2022/11/08 04:50:10;;;;;;;2.72;1.20;;;;;;;18.78;51.28;100545.50;5061394;28;20056;-69
2022/11/08 04:52:35;;;;;;;4.60;1.60;;;;;;;18.79;51.35;100534.00;5060984;28;20078;-67
2022/11/08 04:55:01;;;;;;;3.37;1.20;;;;;;;18.78;51.02;100529.66;5060783;28;20052;-69
2022/11/08 04:57:27;;;;;;;3.47;1.42;;;;;;;18.81;51.03;100526.75;5060713;28;20328;-70
2022/11/08 04:59:53;;;;;;;3.30;1.40;;;;;;;18.78;50.89;100523.56;5061362;28;20028;-68
2022/11/08 05:02:18;;;;;;;4.65;1.50;;;;;;;18.77;50.89;100532.44;5060606;28;20028;-68
2022/11/08 05:04:43;;;;;;;3.03;1.10;;;;;;;18.76;51.12;100531.63;5061003;28;20495;-68
2022/11/08 05:07:08;;;;;;;2.97;1.10;;;;;;;18.75;51.18;100518.56;5060650;28;20042;-68
2022/11/08 05:09:34;;;;;;;4.37;1.37;;;;;;;18.78;51.03;100521.75;5043000;28;20039;-69
2022/11/08 05:11:59;;;;;;;4.43;1.23;;;;;;;18.74;51.04;100514.25;5060664;28;20336;-67
2022/11/08 05:14:24;;;;;;;3.07;1.13;;;;;;;18.76;50.92;100513.16;5061194;28;20312;-68
2022/11/08 05:16:49;;;;;;;4.50;1.40;;;;;;;18.73;51.18;100510.78;5060722;28;20720;-69
2022/11/08 05:23:22;;;;;;;3.40;1.20;;;;;;;18.74;51.11;100517.72;5042839;28;20037;-68
2022/11/08 05:24:44;;;;;;;3.67;1.20;;;;;;;18.73;50.99;100515.22;5060797;28;20581;-68
2022/11/08 05:27:09;;;;;;;3.53;1.13;;;;;;;18.71;51.03;100504.81;5061039;28;20083;-68
2022/11/08 05:29:34;;;;;;;3.13;1.00;;;;;;;18.69;50.83;100498.81;5060886;28;20733;-68
2022/11/08 05:32:00;;;;;;;4.00;1.50;;;;;;;18.70;50.68;100497.84;5060626;28;20280;-68
2022/11/08 05:34:25;;;;;;;3.93;1.40;;;;;;;18.70;50.86;100494.38;5042927;28;20318;-68
2022/11/08 05:36:50;;;;;;;3.83;1.10;;;;;;;18.73;50.91;100500.22;5060673;28;20273;-69
2022/11/08 05:39:15;;;;;;;3.50;1.30;;;;;;;18.70;50.66;100494.38;5060294;28;20712;-68
2022/11/08 05:41:41;;;;;;;4.03;1.25;;;;;;;18.72;50.57;100500.34;5060372;28;20661;-67
2022/11/08 05:44:06;;;;;;;3.37;1.40;;;;;;;18.68;50.81;100497.97;5060560;28;20040;-68
2022/11/08 05:46:31;;;;;;;3.92;1.20;;;;;;;18.72;50.72;100511.72;5060992;28;20678;-68
2022/11/08 05:48:56;;;;;;;3.03;1.20;;;;;;;18.70;50.45;100497.03;5042354;28;20040;-71
2022/11/08 05:51:22;;;;;;;3.70;1.40;;;;;;;18.69;50.75;100493.53;5060597;28;20273;-67
2022/11/08 05:53:47;;;;;;;4.05;1.40;;;;;;;18.73;50.63;100496.75;5060185;28;20644;-68
2022/11/08 05:56:12;;;;;;;3.50;1.30;;;;;;;18.68;50.74;100487.44;5042697;28;20032;-68
2022/11/08 05:58:38;;;;;;;3.42;1.30;;;;;;;18.70;50.43;100499.66;5060103;28;20045;-68
2022/11/08 06:01:11;;;;;;;4.87;1.50;;;;;;;18.71;50.64;100488.13;5061203;28;20039;-68
2022/11/08 06:03:37;;;;;;;4.97;1.63;;;;;;;18.71;50.61;100480.19;5060532;28;20276;-69
2022/11/08 06:06:14;;;;;;;3.28;1.30;;;;;;;18.71;50.42;100478.41;5060414;28;20120;-67
2022/11/08 06:08:40;;;;;;;3.28;1.33;;;;;;;18.73;50.44;100480.91;5059635;28;20032;-67
2022/11/08 06:11:08;;;;;;;4.28;1.20;;;;;;;18.72;50.65;100474.78;5060594;28;20376;-68
2022/11/08 06:13:34;;;;;;;4.07;1.40;;;;;;;18.70;50.41;100470.63;5061896;28;20035;-68
2022/11/08 06:16:01;;;;;;;4.88;1.60;;;;;;;18.70;50.38;100474.09;5063924;28;20036;-69
2022/11/08 06:18:28;;;;;;;3.97;1.45;;;;;;;18.73;50.15;100484.38;5063692;28;20045;-67
2022/11/08 06:20:53;;;;;;;3.40;1.25;;;;;;;18.71;50.30;100488.97;5046099;28;20391;-68
2022/11/08 06:23:18;;;;;;;3.13;1.20;;;;;;;18.71;50.38;100477.56;5063676;28;20028;-68
2022/11/08 06:25:45;;;;;;;3.80;1.47;;;;;;;18.70;50.58;100479.38;5063805;28;20468;-67
2022/11/08 06:28:12;;;;;;;4.22;1.42;;;;;;;18.71;50.80;100478.41;5063544;28;20626;-67
2022/11/08 06:30:37;;;;;;;4.28;1.50;;;;;;;18.70;51.35;100479.38;5064451;28;20040;-68
2022/11/08 06:33:02;;;;;;;5.05;1.40;;;;;;;18.75;51.18;100474.50;5063545;28;20033;-67
2022/11/08 06:35:28;;;;;;;4.70;1.50;;;;;;;18.78;51.09;100484.78;5063676;28;20392;-68
2022/11/08 06:37:53;;;;;;;3.73;1.57;;;;;;;18.78;50.97;100482.16;5063670;28;20033;-67
2022/11/08 06:40:18;;;;;;;4.03;1.40;;;;;;;18.85;50.91;100493.06;5063608;28;20300;-67
2022/11/08 06:42:43;;;;;;;5.07;1.30;;;;;;;18.84;51.22;100491.38;5063705;28;20259;-67
2022/11/08 06:45:09;;;;;;;4.13;1.35;;;;;;;18.91;51.09;100487.19;5063271;28;20376;-68
2022/11/08 06:47:34;;;;;;;3.80;1.38;;;;;;;18.90;50.87;100487.31;5063346;28;20029;-69
2022/11/08 06:49:59;;;;;;;4.90;1.53;;;;;;;18.96;50.99;100489.41;5063308;28;20105;-68
2022/11/08 06:52:25;;;;;;;5.20;1.40;;;;;;;18.98;50.93;100493.59;5063213;28;20272;-68
2022/11/08 06:54:50;;;;;;;4.93;1.50;;;;;;;19.02;50.61;100491.50;5063450;28;20340;-68
2022/11/08 06:57:16;;;;;;;4.65;1.42;;;;;;;19.03;50.85;100495.84;5062949;28;20265;-69
2022/11/08 06:59:41;;;;;;;3.43;1.20;;;;;;;19.07;50.53;100494.56;5063012;28;20090;-65
2022/11/08 07:02:08;;;;;;;4.15;1.35;;;;;;;19.06;50.76;100489.41;5063104;28;20756;-67
2022/11/08 07:04:34;;;;;;;3.15;1.35;;;;;;;19.12;50.57;100499.44;5063141;28;20039;-68
2022/11/08 07:06:59;;;;;;;3.60;1.45;;;;;;;19.11;50.16;100501.25;5063167;28;20028;-67
2022/11/08 07:09:24;;;;;;;7.15;1.30;;;;;;;19.12;49.88;100508.22;5062949;28;20456;-69
2022/11/08 07:11:50;;;;;;;5.07;1.70;;;;;;;19.16;49.96;100517.50;5063279;28;20025;-68
2022/11/08 07:14:15;;;;;;;4.05;1.50;;;;;;;19.18;49.78;100510.28;5062714;28;20269;-67
2022/11/08 07:16:41;;;;;;;4.57;1.50;;;;;;;19.16;50.14;100506.94;5063103;28;20114;-65
2022/11/08 07:19:06;;;;;;;3.13;1.20;;;;;;;19.23;50.05;100506.38;5062417;28;20287;-69
2022/11/08 07:21:31;;;;;;;3.30;1.27;;;;;;;19.21;50.24;100506.53;5062625;28;20464;-66
2022/11/08 07:23:56;;;;;;;3.95;1.45;;;;;;;19.24;50.36;100508.88;5062249;28;20407;-68
2022/11/08 07:26:22;;;;;;;3.97;1.23;;;;;;;19.26;50.37;100495.53;5062501;28;20016;-71
2022/11/08 07:28:47;;;;;;;3.77;1.20;;;;;;;19.24;50.55;100500.97;5062658;28;21240;-66
2022/11/08 07:31:12;;;;;;;3.40;1.20;;;;;;;19.24;50.30;100503.59;5062482;28;20347;-66
2022/11/08 07:33:38;;;;;;;4.07;1.40;;;;;;;19.29;50.22;100508.47;5062551;28;20273;-70
2022/11/08 07:36:03;;;;;;;4.45;1.50;;;;;;;19.26;50.13;100498.19;5062320;28;20064;-68
2022/11/08 07:38:28;;;;;;;4.30;1.45;;;;;;;19.30;50.44;100497.75;5044479;28;20520;-67
2022/11/08 07:40:56;;;;;;;4.05;1.30;;;;;;;19.30;50.17;100489.00;5062658;28;20456;-67
2022/11/08 07:43:22;;;;;;;4.70;1.50;;;;;;;19.29;50.54;100485.50;5062528;28;20048;-65
2022/11/08 07:45:52;;;;;;;3.97;1.40;;;;;;;19.29;50.46;100485.50;5062282;28;20032;-67
2022/11/08 07:48:18;;;;;;;4.30;1.40;;;;;;;19.30;50.56;100494.28;5062210;28;20283;-67
2022/11/08 07:50:45;;;;;;;5.27;1.57;;;;;;;19.31;50.65;100478.31;5062401;28;20028;-71
2022/11/08 07:53:10;;;;;;;3.85;1.25;;;;;;;19.34;50.69;100491.22;5060034;28;20361;-71
2022/11/08 07:55:37;;;;;;;4.70;1.20;;;;;;;19.30;50.91;100486.38;5061755;28;20135;-70
2022/11/08 07:58:03;;;;;;;5.07;1.75;;;;;;;19.29;50.86;100485.50;5060536;28;20040;-66
2022/11/08 08:00:30;;;;;;;5.60;1.50;;;;;;;19.27;51.06;100487.47;5061447;28;20039;-69
2022/11/08 08:02:59;;;;;;;4.43;1.25;;;;;;;19.29;50.93;100477.59;5061976;28;20074;-68
2022/11/08 08:05:26;;;;;;;4.55;1.50;;;;;;;19.34;51.05;100477.16;5060840;28;20029;-70
2022/11/08 08:07:55;;;;;;;5.53;1.20;;;;;;;19.35;50.77;100490.25;5062348;28;20037;-71
2022/11/08 08:10:20;;;;;;;4.57;1.30;;;;;;;19.36;50.71;100475.25;5061806;28;20051;-70
2022/11/08 08:12:45;;;;;;;3.83;1.30;;;;;;;19.38;50.48;100489.13;5043993;28;20029;-69
2022/11/08 08:15:11;;;;;;;4.40;1.47;;;;;;;19.38;50.67;100482.03;5061915;28;20314;-70
2022/11/08 08:17:36;;;;;;;2.92;1.00;;;;;;;19.37;50.74;100469.78;5061935;28;20269;-72
2022/11/08 08:20:01;;;;;;;4.97;1.37;;;;;;;19.39;50.71;100490.78;5061258;28;20119;-74
2022/11/08 08:22:26;;;;;;;3.00;1.10;;;;;;;19.38;50.55;100483.84;5057761;28;20366;-71
2022/11/08 08:24:52;;;;;;;3.97;1.10;;;;;;;19.39;50.35;100486.34;5060590;28;20296;-73
2022/11/08 08:27:17;;;;;;;3.70;1.33;;;;;;;19.43;50.17;100480.78;5061304;28;20029;-73
2022/11/08 08:29:42;;;;;;;3.78;1.40;;;;;;;19.48;50.13;100497.88;5060337;28;20772;-68
2022/11/08 08:32:08;;;;;;;4.78;1.20;;;;;;;19.50;50.05;100501.22;5060985;28;20032;-71
2022/11/08 08:34:33;;;;;;;3.13;1.10;;;;;;;19.54;50.07;100513.16;5060729;28;20523;-71
2022/11/08 08:36:58;;;;;;;3.43;1.27;;;;;;;19.61;49.79;100521.34;5060221;28;20035;-69
2022/11/08 08:39:24;;;;;;;3.83;1.33;;;;;;;19.65;49.64;100514.00;5060485;28;20272;-70
2022/11/08 08:41:49;;;;;;;3.80;1.30;;;;;;;19.71;49.57;100510.75;5060915;28;20276;-67
2022/11/08 08:44:14;;;;;;;3.63;1.27;;;;;;;19.72;49.58;100491.28;5060719;28;20700;-69
2022/11/08 08:46:39;;;;;;;3.22;1.17;;;;;;;19.78;49.13;100498.66;5060947;28;20257;-69
2022/11/08 08:49:04;;;;;;;2.93;1.13;;;;;;;19.79;49.06;100481.84;5060069;28;20536;-74
2022/11/08 08:51:30;;;;;;;3.20;1.30;;;;;;;19.80;49.00;100488.78;5060683;28;20293;-72
2022/11/08 08:53:56;;;;;;;3.53;1.10;;;;;;;19.78;48.93;100476.69;5060889;28;20277;-72
2022/11/08 08:56:23;;;;;;;3.72;1.35;;;;;;;19.81;49.01;100495.75;5060438;28;20400;-77
2022/11/08 08:58:48;;;;;;;4.45;1.40;;;;;;;19.85;48.94;100491.84;5060427;28;20115;-70
2022/11/08 09:01:15;;;;;;;4.15;1.30;;;;;;;19.88;48.80;100485.41;5060667;28;20030;-71
2022/11/08 09:03:40;;;;;;;4.03;1.10;;;;;;;19.88;48.67;100482.75;5061123;28;20086;-74
2022/11/08 09:06:05;;;;;;;3.70;1.10;;;;;;;19.90;48.64;100467.56;5060040;28;20517;-71
2022/11/08 09:08:30;;;;;;;5.35;1.15;;;;;;;19.93;48.73;100475.22;5061060;28;20273;-71
2022/11/08 09:10:57;;;;;;;3.07;1.20;;;;;;;19.91;48.65;100456.03;5060208;28;20524;-73
2022/11/08 09:13:25;;;;;;;5.80;1.30;;;;;;;19.89;48.82;100466.75;5060296;28;21007;-72
2022/11/08 09:15:51;;;;;;;2.75;1.08;;;;;;;19.89;48.82;100482.63;5060237;28;21049;-72
2022/11/08 09:18:16;;;;;;;2.78;1.42;;;;;;;19.88;48.76;100483.59;5059798;28;20115;-73
2022/11/08 09:20:42;;;;;;;5.18;1.67;;;;;;;19.93;48.73;100483.16;5042043;28;20033;-70
2022/11/08 09:23:10;;;;;;;4.85;1.10;;;;;;;19.89;48.88;100482.63;5060290;28;20119;-74
2022/11/08 09:25:36;;;;;;;4.78;1.52;;;;;;;19.88;48.59;100459.78;5060715;28;20037;-74
2022/11/08 09:28:02;;;;;;;3.75;1.30;;;;;;;19.91;48.94;100472.72;5061008;28;20100;-75
2022/11/08 09:30:27;;;;;;;4.35;1.30;;;;;;;19.89;48.71;100464.09;5060850;28;20097;-76
2022/11/08 09:32:53;;;;;;;5.32;1.20;;;;;;;19.92;48.51;100460.34;5061609;28;20032;-78
2022/11/08 09:35:18;;;;;;;2.90;1.10;;;;;;;19.91;48.71;100466.59;5061017;28;20443;-72
2022/11/08 09:37:44;;;;;;;4.57;1.75;;;;;;;19.94;48.65;100477.72;5060584;28;20090;-74
2022/11/08 09:40:15;;;;;;;4.57;1.10;;;;;;;19.95;48.52;100478.59;5060852;28;20049;-73
2022/11/08 09:43:06;;;;;;;4.60;1.20;;;;;;;19.93;48.35;100475.22;5060349;28;20032;-72
2022/11/08 09:45:46;;;;;;;3.70;1.20;;;;;;;19.86;48.60;100467.03;5042181;28;20408;-78
2022/11/08 09:48:37;;;;;;;3.17;1.20;;;;;;;19.92;48.60;100474.41;5045358;28;20105;-80
2022/11/08 09:51:11;;;;;;;3.78;1.25;;;;;;;19.94;48.77;100469.78;5054103;28;20420;-75
2022/11/08 09:53:52;;;;;;;4.18;1.20;;;;;;;19.97;48.83;100489.00;5045889;28;20375;-72
2022/11/08 09:56:20;;;;;;;5.28;1.38;;;;;;;19.96;48.58;100484.69;5063966;28;20041;-71
2022/11/08 09:59:28;;;;;;;3.88;1.35;;;;;;;19.96;48.72;100492.63;5063681;28;20037;-75
2022/11/08 10:01:54;;;;;;;4.93;1.30;;;;;;;19.93;48.61;100489.31;5015985;28;20131;-74
2022/11/08 10:04:23;;;;;;;2.70;1.17;;;;;;;19.98;48.49;100486.22;5063740;28;20097;-72
2022/11/08 10:07:12;;;;;;;4.35;1.30;;;;;;;20.00;48.44;100486.06;5063922;28;20448;-71
2022/11/08 10:09:49;;;;;;;3.22;1.30;;;;;;;19.96;48.51;100485.50;5063810;28;20032;-69
2022/11/08 10:12:47;;;;;;;4.65;1.17;;;;;;;20.02;48.42;100494.69;5063699;28;20052;-68
2022/11/08 10:15:38;;;;;;;3.45;1.20;;;;;;;20.03;48.37;100493.72;5063621;28;20166;-75
2022/11/08 10:18:28;;;;;;;2.30;1.08;;;;;;;20.05;48.47;100505.00;5017237;28;20045;-74
2022/11/08 10:21:14;;;;;;;2.95;1.27;;;;;;;20.02;48.31;100506.09;5064068;28;20131;-71
2022/11/08 10:23:56;;;;;;;5.57;1.52;;;;;;;20.03;48.08;100509.59;5064236;28;20561;-74
2022/11/08 10:26:32;;;;;;;2.75;1.00;;;;;;;19.97;48.47;100494.31;5045269;28;20035;-73
2022/11/08 10:29:22;;;;;;;4.82;1.20;;;;;;;19.98;48.12;100510.03;5063320;28;20074;-76
2022/11/08 10:31:55;;;;;;;3.70;1.10;;;;;;;19.97;48.11;100502.25;5050862;28;20040;-74
2022/11/08 10:34:24;;;;;;;4.40;1.10;;;;;;;20.03;48.06;100518.34;5045485;28;20037;-76
2022/11/08 10:36:57;;;;;;;3.75;1.17;;;;;;;20.06;48.42;100517.22;5063126;28;20028;-73
2022/11/08 10:39:27;;;;;;;4.72;1.40;;;;;;;20.03;48.07;100504.31;5044388;28;20040;-73
2022/11/08 10:42:09;;;;;;;3.15;1.10;;;;;;;20.07;48.23;100518.88;5062672;28;20048;-73
2022/11/08 10:44:35;;;;;;;2.92;1.20;;;;;;;20.06;48.27;100522.50;5063024;28;20060;-70
2022/11/08 10:47:05;;;;;;;3.75;1.20;;;;;;;20.01;48.37;100507.09;5062927;28;20425;-74
2022/11/08 10:49:42;;;;;;;6.10;1.30;;;;;;;19.96;48.34;100504.03;5062453;28;20082;-78
2022/11/08 10:52:10;;;;;;;10.02;2.15;;;;;;;20.05;48.40;100512.91;5062780;28;20036;-71
2022/11/08 10:54:42;;;;;;;6.03;1.20;;;;;;;20.06;48.08;100504.84;5062574;28;20077;-72
2022/11/08 10:57:23;;;;;;;2.55;1.05;;;;;;;20.05;48.15;100505.81;5062476;28;20870;-72
2022/11/08 10:59:50;;;;;;;3.72;1.30;;;;;;;20.05;47.91;100497.03;5062158;28;20034;-72
2022/11/08 11:02:27;;;;;;;3.28;1.13;;;;;;;20.09;48.21;100496.63;5062489;28;20434;-76
2022/11/08 11:05:18;;;;;;;2.72;1.17;;;;;;;20.05;48.21;100492.59;5062505;28;20035;-70
2022/11/08 11:07:46;;;;;;;3.75;1.50;;;;;;;20.11;48.13;100494.66;5062644;28;20975;-71
2022/11/08 11:10:21;;;;;;;4.90;1.13;;;;;;;20.14;47.92;100485.59;5044708;28;20032;-69
2022/11/08 11:13:20;;;;;;;3.90;1.20;;;;;;;20.13;48.15;100468.03;5062322;28;20040;-70
2022/11/08 11:15:55;;;;;;;4.30;1.70;;;;;;;20.17;47.94;100464.16;5061952;28;20028;-75
2022/11/08 11:18:26;;;;;;;2.95;1.20;;;;;;;20.16;48.19;100451.06;5062336;28;20052;-74
2022/11/08 11:21:01;;;;;;;3.33;1.15;;;;;;;20.18;48.07;100473.72;5062475;28;20202;-73
2022/11/08 11:23:54;;;;;;;3.05;1.38;;;;;;;20.19;48.13;100466.63;5061679;28;20046;-72
2022/11/08 11:26:27;;;;;;;3.67;1.10;;;;;;;20.17;48.13;100453.56;5057990;28;20041;-72
2022/11/08 11:29:05;;;;;;;2.95;1.20;;;;;;;20.16;48.29;100456.34;5063007;28;20077;-71
2022/11/08 11:31:33;;;;;;;3.42;1.08;;;;;;;20.09;48.37;100429.63;5062669;28;20036;-70
2022/11/08 11:34:19;;;;;;;3.38;1.30;;;;;;;20.08;48.61;100423.50;5062570;28;20032;-71
2022/11/08 11:36:50;;;;;;;3.13;1.10;;;;;;;20.09;48.50;100433.13;5062674;28;20033;-71
2022/11/08 11:39:23;;;;;;;4.53;1.08;;;;;;;20.16;48.52;100453.72;5061794;28;20043;-70
2022/11/08 11:42:05;;;;;;;4.60;1.40;;;;;;;20.19;48.47;100461.34;5062558;28;20362;-73
2022/11/08 11:44:38;;;;;;;3.30;1.05;;;;;;;20.18;48.47;100447.25;5062384;28;20047;-72
2022/11/08 11:47:13;;;;;;;2.38;1.27;;;;;;;20.18;48.48;100439.31;5062985;28;20063;-70
2022/11/08 11:49:42;;;;;;;2.38;1.00;;;;;;;20.22;48.44;100445.16;5043891;28;20388;-69